createdAt,value
2023-11-24T00:02:27.493Z,-6.82
2023-11-24T00:04:55.170Z,-7.22
2023-11-24T00:07:22.718Z,-6.80
2023-11-24T00:09:50.692Z,-6.75
2023-11-24T00:12:18.622Z,-6.79
2023-11-24T00:14:46.401Z,-6.72
2023-11-24T00:17:13.838Z,-6.74
2023-11-24T00:19:41.829Z,-6.71
2023-11-24T00:22:09.415Z,-6.68
2023-11-24T00:24:38.912Z,-6.60
2023-11-24T00:27:07.653Z,-6.74
2023-11-24T00:29:35.289Z,-6.79
2023-11-24T00:32:05.338Z,-6.76
2023-11-24T00:34:33.509Z,-6.74
2023-11-24T00:37:00.980Z,-6.82
2023-11-24T00:39:29.420Z,-6.82
2023-11-24T00:41:57.551Z,-7.10
2023-11-24T00:44:25.150Z,-6.95
2023-11-24T00:46:52.783Z,-6.84
2023-11-24T00:49:20.637Z,-7.28
2023-11-24T00:51:48.637Z,-6.95
2023-11-24T00:54:16.376Z,-6.88
2023-11-24T00:56:43.976Z,-6.76
2023-11-24T00:59:12.336Z,-6.86
2023-11-24T01:01:39.792Z,-6.93
2023-11-24T01:04:08.845Z,-6.68
2023-11-24T01:06:36.421Z,-6.80
2023-11-24T01:09:06.184Z,-6.74
2023-11-24T01:11:35.130Z,-6.68
2023-11-24T01:14:03.064Z,-6.68
2023-11-24T01:16:30.898Z,-6.75
2023-11-24T01:19:00.622Z,-6.67
2023-11-24T01:21:28.223Z,-6.78
2023-11-24T01:24:00.616Z,-6.96
2023-11-24T01:26:28.305Z,-6.66
2023-11-24T01:28:55.868Z,-6.63
2023-11-24T01:31:24.092Z,-6.65
2023-11-24T01:33:51.910Z,-6.68
2023-11-24T01:36:19.794Z,-7.09
2023-11-24T01:38:47.464Z,-6.76
2023-11-24T01:41:15.397Z,-6.69
2023-11-24T01:44:00.767Z,-6.71
2023-11-24T01:46:28.641Z,-7.04
2023-11-24T01:48:56.333Z,-6.65
2023-11-24T01:51:25.128Z,-6.70
2023-11-24T01:53:53.706Z,-6.63
2023-11-24T01:56:22.647Z,-6.57
2023-11-24T01:58:53.837Z,-6.87
2023-11-24T02:01:26.278Z,-6.30
2023-11-24T02:03:56.341Z,-6.46
2023-11-24T02:06:24.903Z,-6.45
2023-11-24T02:08:53.011Z,-6.47
2023-11-24T02:11:20.468Z,-6.31
2023-11-24T02:13:51.310Z,-6.35
2023-11-24T02:16:20.153Z,-6.74
2023-11-24T02:18:48.988Z,-6.55
2023-11-24T02:21:18.738Z,-6.44
2023-11-24T02:23:46.690Z,-6.86
2023-11-24T02:26:15.689Z,-6.54
2023-11-24T02:28:44.185Z,-6.95
2023-11-24T02:31:13.318Z,-6.49
2023-11-24T02:33:42.283Z,-6.76
2023-11-24T02:36:18.905Z,-6.43
2023-11-24T02:38:48.010Z,-6.54
2023-11-24T02:41:18.631Z,-6.85
2023-11-24T02:43:46.293Z,-6.80
2023-11-24T02:46:14.562Z,-7.07
2023-11-24T02:48:43.803Z,-6.52
2023-11-24T02:51:12.640Z,-6.63
2023-11-24T02:53:40.732Z,-6.59
2023-11-24T02:56:09.224Z,-6.64
2023-11-24T02:58:38.215Z,-7.03
2023-11-24T03:01:08.868Z,-6.67
2023-11-24T03:03:36.454Z,-6.52
2023-11-24T03:06:07.442Z,-6.84
2023-11-24T03:08:35.515Z,-6.58
2023-11-24T03:11:08.583Z,-6.56
2023-11-24T03:13:36.386Z,-6.48
2023-11-24T03:16:05.695Z,-6.82
2023-11-24T03:18:33.390Z,-6.55
2023-11-24T03:21:01.483Z,-6.63
2023-11-24T03:23:29.417Z,-6.65
2023-11-24T03:25:57.771Z,-6.55
2023-11-24T03:28:25.778Z,-6.75
2023-11-24T03:30:53.274Z,-6.33
2023-11-24T03:33:21.602Z,-6.38
2023-11-24T03:35:49.419Z,-6.52
2023-11-24T03:38:16.983Z,-6.51
2023-11-24T03:40:46.364Z,-6.95
2023-11-24T03:43:15.050Z,-6.73
2023-11-24T03:45:45.492Z,-6.76
2023-11-24T03:48:13.383Z,-6.79
2023-11-24T03:50:41.122Z,-7.51
2023-11-24T03:53:09.018Z,-7.29
2023-11-24T03:55:36.650Z,-6.71
2023-11-24T03:58:05.310Z,-6.63
2023-11-24T04:00:33.358Z,-6.70
2023-11-24T04:03:01.227Z,-6.85
2023-11-24T04:05:28.906Z,-6.80
2023-11-24T04:07:56.363Z,-7.18
2023-11-24T04:10:24.064Z,-6.88
2023-11-24T04:12:53.316Z,-6.83
2023-11-24T04:15:20.912Z,-6.96
2023-11-24T04:17:48.514Z,-6.74
2023-11-24T04:20:16.491Z,-6.68
2023-11-24T04:22:44.118Z,-6.66
2023-11-24T04:25:11.985Z,-6.91
2023-11-24T04:27:39.724Z,-6.80
2023-11-24T04:30:07.945Z,-6.69
2023-11-24T04:32:35.628Z,-7.22
2023-11-24T04:35:03.918Z,-6.78
2023-11-24T04:37:31.379Z,-6.70
2023-11-24T04:39:58.708Z,-6.77
2023-11-24T04:42:28.090Z,-7.08
2023-11-24T04:44:57.150Z,-7.32
2023-11-24T04:47:24.833Z,-6.77
2023-11-24T04:49:53.574Z,-7.24
2023-11-24T04:52:21.337Z,-6.76
2023-11-24T04:54:48.762Z,-6.86
2023-11-24T04:57:16.369Z,-6.82
2023-11-24T04:59:43.789Z,-6.81
2023-11-24T05:02:11.218Z,-6.84
2023-11-24T05:04:39.061Z,-6.96
2023-11-24T05:07:06.641Z,-6.87
2023-11-24T05:09:34.073Z,-6.75
2023-11-24T05:12:01.495Z,-6.70
2023-11-24T05:14:29.049Z,-6.75
2023-11-24T05:16:56.533Z,-6.92
2023-11-24T05:19:24.059Z,-6.80
2023-11-24T05:21:51.833Z,-7.13
2023-11-24T05:24:19.467Z,-6.90
2023-11-24T05:26:48.673Z,-6.72
2023-11-24T05:29:17.935Z,-6.68
2023-11-24T05:31:45.435Z,-6.67
2023-11-24T05:34:12.941Z,-6.74
2023-11-24T05:36:40.353Z,-6.57
2023-11-24T05:39:09.034Z,-6.81
2023-11-24T05:41:36.800Z,-6.56
2023-11-24T05:44:05.095Z,-6.61
2023-11-24T05:46:32.624Z,-6.61
2023-11-24T05:49:00.303Z,-6.50
2023-11-24T05:51:27.999Z,-6.83
2023-11-24T05:53:56.494Z,-6.38
2023-11-24T05:56:23.929Z,-6.39
2023-11-24T05:58:52.766Z,-6.21
2023-11-24T06:01:23.731Z,-6.46
2023-11-24T06:03:51.849Z,-6.20
2023-11-24T06:06:19.532Z,-6.23
2023-11-24T06:08:47.164Z,-6.02
2023-11-24T06:11:19.393Z,-6.14
2023-11-24T06:13:47.761Z,-6.02
2023-11-24T06:16:15.216Z,-5.96
2023-11-24T06:18:43.246Z,-6.44
2023-11-24T06:21:13.436Z,-6.04
2023-11-24T06:23:41.109Z,-6.08
2023-11-24T06:26:10.308Z,-6.00
2023-11-24T06:28:37.868Z,-5.88
2023-11-24T06:31:06.323Z,-5.93
2023-11-24T06:33:34.696Z,-5.97
2023-11-24T06:36:02.405Z,-5.99
2023-11-24T06:38:31.099Z,-5.80
2023-11-24T06:40:58.621Z,-5.78
2023-11-24T06:43:26.264Z,-5.69
2023-11-24T06:45:53.839Z,-5.56
2023-11-24T06:48:21.344Z,-5.45
2023-11-24T06:50:48.753Z,-5.42
2023-11-24T06:53:16.113Z,-5.30
2023-11-24T06:55:43.576Z,-5.18
2023-11-24T06:58:11.366Z,-5.13
2023-11-24T07:00:39.844Z,-5.26
2023-11-24T07:03:07.895Z,-5.26
2023-11-24T07:05:37.007Z,-5.07
2023-11-24T07:08:04.751Z,-5.16
2023-11-24T07:10:32.328Z,-5.19
2023-11-24T07:13:00.551Z,-5.36
2023-11-24T07:15:27.957Z,-4.98
2023-11-24T07:17:55.847Z,-5.44
2023-11-24T07:20:23.311Z,-5.11
2023-11-24T07:22:50.761Z,-5.31
2023-11-24T07:25:18.391Z,-5.40
2023-11-24T07:27:47.161Z,-5.01
2023-11-24T07:30:15.174Z,-5.06
2023-11-24T07:32:43.065Z,-5.23
2023-11-24T07:35:11.985Z,-5.45
2023-11-24T07:37:40.260Z,-4.71
2023-11-24T07:40:15.935Z,-4.69
2023-11-24T07:42:45.250Z,-4.79
2023-11-24T07:45:13.552Z,-4.65
2023-11-24T07:47:41.896Z,-4.70
2023-11-24T07:50:10.519Z,-4.37
2023-11-24T07:52:38.207Z,-4.49
2023-11-24T07:55:07.131Z,-4.62
2023-11-24T07:57:36.679Z,-4.69
2023-11-24T08:00:05.870Z,-4.69
2023-11-24T08:02:41.933Z,-4.78
2023-11-24T08:05:10.098Z,-4.69
2023-11-24T08:07:38.950Z,-4.75
2023-11-24T08:10:06.799Z,-5.30
2023-11-24T08:12:34.180Z,-5.16
2023-11-24T08:15:01.886Z,-4.65
2023-11-24T08:17:31.256Z,-4.54
2023-11-24T08:19:58.713Z,-4.75
2023-11-24T08:22:27.821Z,-4.42
2023-11-24T08:24:57.352Z,-4.72
2023-11-24T08:27:24.774Z,-4.38
2023-11-24T08:29:52.877Z,-4.75
2023-11-24T08:32:21.484Z,-4.66
2023-11-24T08:34:49.107Z,-4.62
2023-11-24T08:37:16.598Z,-4.41
2023-11-24T08:39:45.026Z,-4.30
2023-11-24T08:42:12.563Z,-4.18
2023-11-24T08:44:40.532Z,-4.06
2023-11-24T08:47:08.359Z,-4.08
2023-11-24T08:49:36.872Z,-4.20
2023-11-24T08:52:04.735Z,-4.06
2023-11-24T08:54:32.716Z,-3.75
2023-11-24T08:57:00.197Z,-3.51
2023-11-24T08:59:27.504Z,-3.16
2023-11-24T09:01:56.611Z,-3.05
2023-11-24T09:04:24.300Z,-2.89
2023-11-24T09:06:51.737Z,-2.61
2023-11-24T09:09:19.429Z,-2.63
2023-11-24T09:11:48.217Z,-2.58
2023-11-24T09:14:15.939Z,-2.85
2023-11-24T09:16:43.553Z,-2.63
2023-11-24T09:19:11.123Z,-2.06
2023-11-24T09:21:38.794Z,-1.90
2023-11-24T09:24:06.858Z,-1.35
2023-11-24T09:26:34.156Z,-1.23
2023-11-24T09:29:02.007Z,-0.91
2023-11-24T09:31:31.854Z,-0.68
2023-11-24T09:33:59.423Z,-0.85
2023-11-24T09:36:27.235Z,-1.22
2023-11-24T09:38:54.687Z,-1.78
2023-11-24T09:41:22.095Z,-2.00
2023-11-24T09:43:50.495Z,-2.21
2023-11-24T09:46:18.593Z,-2.32
2023-11-24T09:48:47.438Z,-2.63
2023-11-24T09:51:18.354Z,-3.05
2023-11-24T09:53:47.217Z,-3.12
2023-11-24T09:56:14.736Z,-3.17
2023-11-24T09:58:43.803Z,-3.36
2023-11-24T10:01:18.371Z,-3.34
2023-11-24T10:03:51.597Z,-3.80
2023-11-24T10:06:20.401Z,-3.28
2023-11-24T10:08:48.253Z,-3.40
2023-11-24T10:11:19.353Z,-3.26
2023-11-24T10:13:49.337Z,-3.52
2023-11-24T10:16:18.752Z,-3.15
2023-11-24T10:18:47.506Z,-2.96
2023-11-24T10:21:23.810Z,-3.05
2023-11-24T10:24:03.658Z,-3.07
2023-11-24T10:26:31.221Z,-3.17
2023-11-24T10:28:58.825Z,-3.40
2023-11-24T10:31:27.567Z,-3.59
2023-11-24T10:33:55.429Z,-3.62
2023-11-24T10:36:26.735Z,-3.58
2023-11-24T10:39:02.263Z,-3.73
2023-11-24T10:41:53.018Z,-3.89
2023-11-24T10:44:22.743Z,-4.04
2023-11-24T10:46:56.819Z,-4.15
2023-11-24T10:49:38.082Z,-4.20
2023-11-24T10:52:13.684Z,-4.19
2023-11-24T10:54:49.110Z,-4.25
2023-11-24T10:57:20.904Z,-4.41
2023-11-24T10:59:50.236Z,-4.37
2023-11-24T11:02:18.388Z,-4.42
2023-11-24T11:05:02.510Z,-4.30
2023-11-24T11:07:37.529Z,-4.21
2023-11-24T11:10:14.897Z,-4.43
2023-11-24T11:12:55.737Z,-4.25
2023-11-24T11:15:29.761Z,-4.35
2023-11-24T11:18:10.396Z,-4.30
2023-11-24T11:20:42.665Z,-4.41
2023-11-24T11:23:10.714Z,-4.35
2023-11-24T11:25:39.754Z,-4.33
2023-11-24T11:28:19.575Z,-4.29
2023-11-24T11:31:00.091Z,-4.27
2023-11-24T11:33:30.646Z,-4.33
2023-11-24T11:36:06.986Z,-4.35
2023-11-24T11:38:42.120Z,-4.53
2023-11-24T11:41:10.487Z,-4.49
2023-11-24T11:43:54.934Z,-4.50
2023-11-24T11:46:24.196Z,-4.60
2023-11-24T11:48:53.245Z,-4.69
2023-11-24T11:51:23.723Z,-4.77
2023-11-24T11:53:52.412Z,-4.87
2023-11-24T11:56:22.406Z,-4.88
2023-11-24T11:58:50.251Z,-4.87
2023-11-24T12:01:17.805Z,-4.79
2023-11-24T12:03:45.351Z,-4.83
2023-11-24T12:06:12.957Z,-5.28
2023-11-24T12:08:40.544Z,-4.95
2023-11-24T12:11:08.194Z,-5.31
2023-11-24T12:13:40.553Z,-4.90
2023-11-24T12:16:09.782Z,-4.83
2023-11-24T12:18:37.711Z,-4.97
2023-11-24T12:21:06.112Z,-4.64
2023-11-24T12:23:33.827Z,-4.84
2023-11-24T12:26:01.450Z,-4.60
2023-11-24T12:28:29.107Z,-4.75
2023-11-24T12:30:57.059Z,-4.73
2023-11-24T12:33:26.174Z,-4.64
2023-11-24T12:35:56.752Z,-4.57
2023-11-24T12:38:24.253Z,-4.60
2023-11-24T12:40:52.769Z,-4.65
2023-11-24T12:43:23.231Z,-4.60
2023-11-24T12:45:53.497Z,-4.53
2023-11-24T12:48:36.462Z,-4.51
2023-11-24T12:51:05.020Z,-4.82
2023-11-24T12:53:34.480Z,-4.65
2023-11-24T12:56:02.833Z,-4.77
2023-11-24T12:58:31.249Z,-4.90
2023-11-24T13:00:58.726Z,-4.86
2023-11-24T13:03:26.221Z,-4.88
2023-11-24T13:05:53.773Z,-4.90
2023-11-24T13:08:21.708Z,-4.94
2023-11-24T13:10:50.007Z,-4.87
2023-11-24T13:13:17.666Z,-5.06
2023-11-24T13:15:45.104Z,-4.98
2023-11-24T13:18:12.906Z,-5.07
2023-11-24T13:20:40.586Z,-5.18
2023-11-24T13:23:08.032Z,-5.38
2023-11-24T13:25:37.922Z,-5.15
2023-11-24T13:28:06.987Z,-5.19
2023-11-24T13:30:34.967Z,-5.25
2023-11-24T13:33:03.934Z,-5.45
2023-11-24T13:35:32.534Z,-5.08
2023-11-24T13:38:00.082Z,-4.97
2023-11-24T13:40:32.458Z,-4.96
2023-11-24T13:43:00.699Z,-5.07
2023-11-24T13:45:28.636Z,-5.02
2023-11-24T13:47:58.657Z,-5.01
2023-11-24T13:50:26.683Z,-5.23
2023-11-24T13:53:00.004Z,-4.99
2023-11-24T13:55:35.604Z,-5.05
2023-11-24T13:58:04.195Z,-5.27
2023-11-24T14:00:32.823Z,-5.21
2023-11-24T14:03:00.641Z,-5.18
2023-11-24T14:05:28.166Z,-5.19
2023-11-24T14:07:55.572Z,-5.24
2023-11-24T14:10:23.364Z,-5.29
2023-11-24T14:12:51.077Z,-5.63
2023-11-24T14:15:18.763Z,-5.66
2023-11-24T14:17:46.346Z,-5.29
2023-11-24T14:20:14.645Z,-5.61
2023-11-24T14:22:42.578Z,-5.37
2023-11-24T14:25:10.393Z,-5.40
2023-11-24T14:27:41.217Z,-5.32
2023-11-24T14:30:09.637Z,-5.30
2023-11-24T14:32:37.232Z,-5.31
2023-11-24T14:35:07.506Z,-5.28
2023-11-24T14:37:34.929Z,-5.28
2023-11-24T14:40:02.907Z,-5.24
2023-11-24T14:42:32.265Z,-5.33
2023-11-24T14:44:59.809Z,-4.96
2023-11-24T14:47:28.183Z,-5.08
2023-11-24T14:49:55.817Z,-4.98
2023-11-24T14:52:24.848Z,-4.97
2023-11-24T14:54:52.491Z,-5.05
2023-11-24T14:57:19.957Z,-5.15
2023-11-24T14:59:49.736Z,-5.18
2023-11-24T15:02:18.150Z,-5.58
2023-11-24T15:04:45.824Z,-5.19
2023-11-24T15:07:14.629Z,-5.28
2023-11-24T15:09:44.865Z,-5.61
2023-11-24T15:12:12.764Z,-5.53
2023-11-24T15:14:43.060Z,-5.25
2023-11-24T15:17:17.366Z,-5.25
2023-11-24T15:19:48.216Z,-5.31
2023-11-24T15:22:20.437Z,-5.26
2023-11-24T15:24:54.469Z,-5.21
2023-11-24T15:27:22.263Z,-5.29
2023-11-24T15:29:50.200Z,-5.37
2023-11-24T15:32:20.325Z,-5.34
2023-11-24T15:34:47.761Z,-5.72
2023-11-24T15:37:15.360Z,-5.91
2023-11-24T15:39:44.492Z,-5.67
2023-11-24T15:42:16.266Z,-5.34
2023-11-24T15:44:46.086Z,-5.33
2023-11-24T15:47:13.736Z,-5.77
2023-11-24T15:49:43.048Z,-5.34
2023-11-24T15:52:14.999Z,-5.38
2023-11-24T15:54:44.480Z,-5.59
2023-11-24T15:57:13.524Z,-5.41
2023-11-24T15:59:47.297Z,-5.29
2023-11-24T16:02:24.201Z,-5.29
2023-11-24T16:04:57.815Z,-5.24
2023-11-24T16:07:34.044Z,-5.59
2023-11-24T16:10:16.830Z,-5.35
2023-11-24T16:12:45.505Z,-5.43
2023-11-24T16:15:17.611Z,-5.48
2023-11-24T16:17:47.009Z,-5.80
2023-11-24T16:20:14.512Z,-5.42
2023-11-24T16:22:42.281Z,-5.37
2023-11-24T16:25:10.539Z,-5.37
2023-11-24T16:27:42.334Z,-5.33
2023-11-24T16:30:10.688Z,-5.22
2023-11-24T16:32:38.261Z,-5.17
2023-11-24T16:35:09.603Z,-5.56
2023-11-24T16:37:37.253Z,-5.12
2023-11-24T16:40:10.644Z,-5.10
2023-11-24T16:42:38.418Z,-5.15
2023-11-24T16:45:09.895Z,-5.37
2023-11-24T16:47:38.823Z,-5.16
2023-11-24T16:50:09.402Z,-5.02
2023-11-24T16:52:47.557Z,-4.96
2023-11-24T16:55:15.909Z,-4.91
2023-11-24T16:57:43.579Z,-4.70
2023-11-24T17:00:14.909Z,-4.67
2023-11-24T17:02:43.390Z,-4.63
2023-11-24T17:05:11.933Z,-4.64
2023-11-24T17:07:39.376Z,-4.53
2023-11-24T17:10:09.664Z,-4.50
2023-11-24T17:12:37.593Z,-4.51
2023-11-24T17:15:06.086Z,-4.69
2023-11-24T17:17:35.654Z,-4.69
2023-11-24T17:20:03.365Z,-5.19
2023-11-24T17:22:31.402Z,-4.83
2023-11-24T17:24:59.103Z,-4.79
2023-11-24T17:27:26.783Z,-4.86
2023-11-24T17:29:54.988Z,-4.79
2023-11-24T17:32:23.461Z,-4.70
2023-11-24T17:34:51.127Z,-4.70
2023-11-24T17:37:18.678Z,-4.81
2023-11-24T17:39:46.328Z,-4.80
2023-11-24T17:42:13.888Z,-4.81
2023-11-24T17:44:41.955Z,-4.91
2023-11-24T17:47:10.734Z,-5.03
2023-11-24T17:49:38.867Z,-5.01
2023-11-24T17:52:06.461Z,-4.98
2023-11-24T17:54:34.665Z,-4.96
2023-11-24T17:57:02.358Z,-5.32
2023-11-24T17:59:29.825Z,-5.04
2023-11-24T18:01:57.859Z,-5.14
2023-11-24T18:04:25.891Z,-5.11
2023-11-24T18:06:53.413Z,-5.04
2023-11-24T18:09:21.905Z,-5.24
2023-11-24T18:11:51.218Z,-4.98
2023-11-24T18:14:20.895Z,-5.25
2023-11-24T18:16:49.274Z,-4.86
2023-11-24T18:19:16.951Z,-5.00
2023-11-24T18:21:44.443Z,-5.07
2023-11-24T18:24:12.681Z,-5.14
2023-11-24T18:26:40.639Z,-5.24
2023-11-24T18:29:08.095Z,-5.90
2023-11-24T18:31:37.650Z,-5.40
2023-11-24T18:34:09.081Z,-5.54
2023-11-24T18:36:37.712Z,-5.39
2023-11-24T18:39:05.252Z,-5.36
2023-11-24T18:41:32.974Z,-5.81
2023-11-24T18:44:00.602Z,-5.48
2023-11-24T18:46:28.197Z,-5.63
2023-11-24T18:48:55.967Z,-5.67
2023-11-24T18:51:23.485Z,-5.68
2023-11-24T18:53:52.816Z,-5.65
2023-11-24T18:56:23.079Z,-5.53
2023-11-24T18:58:51.249Z,-5.45
2023-11-24T19:01:19.025Z,-5.49
2023-11-24T19:03:46.919Z,-5.64
2023-11-24T19:06:15.122Z,-5.70
2023-11-24T19:08:43.201Z,-5.77
2023-11-24T19:11:13.660Z,-6.21
2023-11-24T19:13:43.241Z,-6.21
2023-11-24T19:16:11.237Z,-5.78
2023-11-24T19:18:38.955Z,-5.69
2023-11-24T19:21:14.778Z,-5.88
2023-11-24T19:23:42.603Z,-5.46
2023-11-24T19:26:13.367Z,-5.48
2023-11-24T19:28:44.531Z,-5.37
2023-11-24T19:31:12.497Z,-5.83
2023-11-24T19:33:40.273Z,-5.37
2023-11-24T19:36:08.395Z,-5.15
2023-11-24T19:38:35.777Z,-5.40
2023-11-24T19:41:03.095Z,-5.19
2023-11-24T19:43:32.636Z,-5.26
2023-11-24T19:46:00.694Z,-5.35
2023-11-24T19:48:31.113Z,-5.69
2023-11-24T19:50:59.542Z,-5.79
2023-11-24T19:53:27.033Z,-5.22
2023-11-24T19:55:54.566Z,-5.19
2023-11-24T19:58:22.978Z,-5.62
2023-11-24T20:00:51.839Z,-5.31
2023-11-24T20:03:19.800Z,-5.42
2023-11-24T20:05:47.334Z,-5.56
2023-11-24T20:08:15.149Z,-5.39
2023-11-24T20:10:43.640Z,-5.43
2023-11-24T20:13:11.203Z,-5.39
2023-11-24T20:15:39.607Z,-5.46
2023-11-24T20:18:07.328Z,-5.91
2023-11-24T20:20:38.012Z,-5.79
2023-11-24T20:23:07.605Z,-5.26
2023-11-24T20:25:35.329Z,-5.36
2023-11-24T20:28:03.006Z,-5.63
2023-11-24T20:30:30.587Z,-5.52
2023-11-24T20:32:58.169Z,-6.08
2023-11-24T20:35:25.896Z,-5.15
2023-11-24T20:37:53.541Z,-5.09
2023-11-24T20:40:21.035Z,-5.11
2023-11-24T20:42:49.626Z,-5.10
2023-11-24T20:45:17.031Z,-5.45
2023-11-24T20:47:44.602Z,-5.58
2023-11-24T20:50:12.425Z,-5.61
2023-11-24T20:52:40.100Z,-5.55
2023-11-24T20:55:10.676Z,-5.65
2023-11-24T20:57:38.188Z,-5.84
2023-11-24T21:00:11.850Z,-5.98
2023-11-24T21:02:40.592Z,-5.89
2023-11-24T21:05:10.060Z,-5.91
2023-11-24T21:07:37.649Z,-5.99
2023-11-24T21:10:06.338Z,-6.20
2023-11-24T21:12:38.249Z,-6.08
2023-11-24T21:15:06.261Z,-6.06
2023-11-24T21:17:34.146Z,-6.11
2023-11-24T21:20:01.607Z,-6.25
2023-11-24T21:22:31.840Z,-6.64
2023-11-24T21:25:00.601Z,-6.13
2023-11-24T21:27:28.017Z,-6.08
2023-11-24T21:29:55.328Z,-6.15
2023-11-24T21:32:23.567Z,-6.13
2023-11-24T21:34:52.419Z,-6.22
2023-11-24T21:37:20.052Z,-6.07
2023-11-24T21:39:47.630Z,-6.04
2023-11-24T21:42:15.228Z,-5.99
2023-11-24T21:44:45.959Z,-5.92
2023-11-24T21:47:13.854Z,-5.80
2023-11-24T21:49:41.926Z,-6.04
2023-11-24T21:52:10.160Z,-5.83
2023-11-24T21:54:38.245Z,-5.85
2023-11-24T21:57:05.891Z,-5.89
2023-11-24T21:59:33.177Z,-5.84
2023-11-24T22:02:00.991Z,-5.91
2023-11-24T22:04:28.610Z,-5.89
2023-11-24T22:06:56.363Z,-5.92
2023-11-24T22:09:24.042Z,-6.01
2023-11-24T22:11:52.084Z,-6.06
2023-11-24T22:14:23.386Z,-6.08
2023-11-24T22:16:51.289Z,-6.38
2023-11-24T22:19:20.495Z,-6.08
2023-11-24T22:21:49.811Z,-6.10
2023-11-24T22:24:17.409Z,-6.13
2023-11-24T22:26:44.909Z,-6.09
2023-11-24T22:29:12.520Z,-6.10
2023-11-24T22:31:40.961Z,-5.90
2023-11-24T22:34:08.735Z,-5.82
2023-11-24T22:36:36.117Z,-5.80
2023-11-24T22:39:04.157Z,-5.74
2023-11-24T22:41:34.149Z,-5.77
2023-11-24T22:44:01.776Z,-5.68
2023-11-24T22:46:29.636Z,-5.54
2023-11-24T22:48:57.163Z,-5.52
2023-11-24T22:51:27.494Z,-5.59
2023-11-24T22:53:55.333Z,-5.49
2023-11-24T22:56:26.803Z,-5.44
2023-11-24T22:59:00.273Z,-5.39
2023-11-24T23:01:28.766Z,-5.33
2023-11-24T23:03:57.849Z,-5.29
2023-11-24T23:06:26.702Z,-5.37
2023-11-24T23:08:56.724Z,-5.24
2023-11-24T23:11:24.939Z,-5.38
2023-11-24T23:13:52.981Z,-5.44
2023-11-24T23:16:26.352Z,-5.37
2023-11-24T23:18:54.538Z,-5.62
2023-11-24T23:21:25.273Z,-5.51
2023-11-24T23:23:52.928Z,-5.46
2023-11-24T23:26:21.156Z,-5.65
2023-11-24T23:28:51.697Z,-5.41
2023-11-24T23:31:19.979Z,-6.00
2023-11-24T23:33:48.111Z,-5.34
2023-11-24T23:36:16.677Z,-5.31
2023-11-24T23:38:45.956Z,-5.31
2023-11-24T23:41:14.008Z,-5.38
2023-11-24T23:43:41.657Z,-5.45
2023-11-24T23:46:11.249Z,-5.37
2023-11-24T23:48:40.576Z,-5.49
2023-11-24T23:51:08.320Z,-5.36
2023-11-24T23:53:35.865Z,-5.47
2023-11-24T23:56:03.920Z,-5.44
2023-11-24T23:58:33.018Z,-5.58
